Time;durP1;ratioP1;P1;durP2;ratioP2;P2;SDS_P1;SDS_P2;PMS_P1;PMS_P2;Temp;Humidity;BMP_temperature;BMP_pressure;BME280_temperature;BME280_humidity;BME280_pressure;Samples;Min_cycle;Max_cycle;Signal;HPM_P1;HPM_P2
2021/04/10 00:00:21;;;;;;;34.58;15.75;;;;;;;4.84;55.92;100598.19;1639556;87;21208;-74
2021/04/10 00:03:09;;;;;;;28.07;14.50;;;;;;;4.86;55.94;100598.62;1644055;87;21506;-74
2021/04/10 00:05:53;;;;;;;30.00;14.73;;;;;;;4.88;56.00;100592.23;1634773;87;21565;-75
2021/04/10 00:08:39;;;;;;;25.52;13.83;;;;;;;4.89;56.07;100586.27;1640921;87;21236;-75
2021/04/10 00:11:24;;;;;;;31.55;15.45;;;;;;;4.88;56.14;100593.09;1637312;86;21205;-74
2021/04/10 00:14:12;;;;;;;26.55;13.62;;;;;;;4.83;56.21;100587.50;1626199;87;21664;-74
2021/04/10 00:17:04;;;;;;;28.60;15.18;;;;;;;4.83;56.37;100578.54;1622153;87;21210;-74
2021/04/10 00:19:50;;;;;;;27.77;14.13;;;;;;;4.85;56.40;100584.53;1633825;86;21208;-74
2021/04/10 00:22:35;;;;;;;28.85;15.53;;;;;;;4.90;56.40;100589.27;1627279;86;21234;-74
2021/04/10 00:25:20;;;;;;;27.73;14.55;;;;;;;4.93;56.44;100587.58;1633629;87;21229;-74
2021/04/10 00:28:05;;;;;;;29.75;15.23;;;;;;;5.00;56.49;100592.31;1615206;88;21229;-74
2021/04/10 00:30:50;;;;;;;29.72;14.58;;;;;;;5.04;56.50;100595.33;1620934;88;21235;-75
2021/04/10 00:33:39;;;;;;;29.55;14.83;;;;;;;5.03;56.54;100596.18;1627635;88;21430;-75
2021/04/10 00:36:24;;;;;;;26.55;14.95;;;;;;;5.04;56.62;100598.32;1619394;86;21110;-75
2021/04/10 00:39:09;;;;;;;28.52;14.43;;;;;;;5.06;56.68;100601.33;1627209;87;21213;-75
2021/04/10 00:41:54;;;;;;;40.15;15.35;;;;;;;5.07;56.68;100597.91;1625874;85;21259;-75
2021/04/10 00:44:39;;;;;;;27.75;14.98;;;;;;;5.11;56.70;100594.95;1620539;87;21179;-75
2021/04/10 00:47:25;;;;;;;31.75;15.48;;;;;;;5.13;56.74;100590.69;1626084;86;21229;-75
2021/04/10 00:50:11;;;;;;;27.27;14.85;;;;;;;5.14;56.77;100595.82;1615131;88;21202;-75
2021/04/10 00:52:56;;;;;;;28.32;15.15;;;;;;;5.15;56.79;100591.12;1617918;88;21205;-75
2021/04/10 00:55:44;;;;;;;33.15;15.28;;;;;;;5.17;56.82;100589.43;1627920;87;21224;-74
2021/04/10 00:58:29;;;;;;;29.48;14.58;;;;;;;5.18;56.85;100583.88;1602937;88;21197;-75
2021/04/10 01:01:15;;;;;;;26.75;14.50;;;;;;;5.19;56.89;100577.48;1621674;88;21229;-75
2021/04/10 01:04:00;;;;;;;29.97;15.57;;;;;;;5.17;56.90;100575.34;1627257;86;21220;-74
2021/04/10 01:06:45;;;;;;;32.90;14.90;;;;;;;5.17;56.92;100578.33;1616581;87;21219;-74
2021/04/10 01:09:31;;;;;;;26.15;15.18;;;;;;;5.18;56.97;100580.04;1623360;86;21592;-74
2021/04/10 01:12:33;;;;;;;34.65;16.05;;;;;;;5.18;57.00;100580.04;1622141;87;21614;-74
2021/04/10 01:15:35;;;;;;;29.02;15.10;;;;;;;5.16;56.98;100580.45;1620028;83;292027;-75
2021/04/10 01:18:46;;;;;;;28.85;14.63;;;;;;;5.13;56.98;100576.59;1628267;87;21505;-75
2021/04/10 01:21:42;;;;;;;26.00;15.18;;;;;;;5.07;56.99;100577.41;1617036;86;21095;-74
2021/04/10 01:24:58;;;;;;;28.10;15.88;;;;;;;5.02;57.04;100575.25;1604478;86;21213;-74
2021/04/10 01:27:57;;;;;;;29.75;14.80;;;;;;;4.99;57.11;100576.09;1626149;87;21523;-74
2021/04/10 01:30:42;;;;;;;27.10;14.85;;;;;;;4.95;57.13;100573.50;1642065;87;21213;-74
2021/04/10 01:33:30;;;;;;;34.03;16.45;;;;;;;4.92;57.16;100568.35;1615502;86;21250;-74
2021/04/10 01:36:20;;;;;;;27.20;14.50;;;;;;;4.89;57.18;100570.89;1626298;86;21218;-74
2021/04/10 01:39:09;;;;;;;28.62;14.43;;;;;;;4.84;57.22;100570.86;1627079;86;21220;-74
2021/04/10 01:41:54;;;;;;;28.12;14.28;;;;;;;4.79;57.22;100574.23;1638756;87;21240;-74
2021/04/10 01:44:41;;;;;;;24.92;14.38;;;;;;;4.73;57.23;100574.20;1634445;86;21198;-74
2021/04/10 01:47:26;;;;;;;29.55;15.60;;;;;;;4.64;57.29;100576.30;1659220;85;22199;-74
2021/04/10 01:50:12;;;;;;;32.75;14.65;;;;;;;4.58;57.30;100577.53;1638328;87;21399;-74
2021/04/10 01:53:00;;;;;;;28.50;15.25;;;;;;;4.55;57.35;100583.91;1613726;86;21201;-73
2021/04/10 01:55:48;;;;;;;29.12;14.53;;;;;;;4.51;57.35;100580.47;1624484;85;21272;-74
2021/04/10 01:58:36;;;;;;;33.42;16.48;;;;;;;4.47;57.37;100586.41;1641145;87;21504;-74
2021/04/10 02:01:24;;;;;;;34.48;15.70;;;;;;;4.43;57.41;100588.92;1630990;86;21237;-74
2021/04/10 02:04:12;;;;;;;28.67;14.70;;;;;;;4.39;57.44;100588.04;1630788;87;21234;-75
2021/04/10 02:06:59;;;;;;;33.15;15.32;;;;;;;4.36;57.44;100585.45;1636530;86;21253;-75
2021/04/10 02:09:47;;;;;;;28.67;14.28;;;;;;;4.30;57.49;100586.26;1627356;87;21153;-75
2021/04/10 02:12:33;;;;;;;31.23;14.75;;;;;;;4.25;57.49;100585.78;1643507;87;21598;-75
2021/04/10 02:15:19;;;;;;;31.62;14.18;;;;;;;4.20;57.61;100584.88;1634909;86;21227;-75
2021/04/10 02:18:05;;;;;;;33.20;15.32;;;;;;;4.15;57.60;100584.01;1641780;87;21795;-75
2021/04/10 02:20:50;;;;;;;30.15;14.85;;;;;;;4.10;57.68;100584.38;1638606;86;21265;-74
2021/04/10 02:23:41;;;;;;;32.03;14.78;;;;;;;4.05;57.73;100583.06;1621126;86;21513;-75
2021/04/10 02:26:27;;;;;;;30.68;14.28;;;;;;;3.99;57.78;100577.45;1620813;87;21500;-74
2021/04/10 02:29:12;;;;;;;27.25;15.15;;;;;;;3.94;57.74;100588.06;1637458;87;21272;-74
2021/04/10 02:32:36;;;;;;;35.15;15.43;;;;;;;3.89;57.81;100591.00;1622120;86;21257;-74
2021/04/10 02:35:26;;;;;;;28.60;14.20;;;;;;;3.82;57.80;100596.88;1620848;87;21206;-74
2021/04/10 02:38:13;;;;;;;24.57;13.98;;;;;;;3.74;57.88;100592.10;1621736;86;21254;-74
2021/04/10 02:41:15;;;;;;;28.92;14.80;;;;;;;3.67;57.92;100591.59;1633831;87;21747;-74
2021/04/10 02:44:05;;;;;;;28.23;14.63;;;;;;;3.62;57.96;100590.72;1628769;86;22121;-74
2021/04/10 02:46:55;;;;;;;31.57;15.48;;;;;;;3.59;58.01;100595.79;1638589;84;513296;-75
2021/04/10 02:49:44;;;;;;;32.90;15.30;;;;;;;3.56;58.05;100599.17;1614662;87;21225;-75
2021/04/10 02:52:37;;;;;;;28.62;15.72;;;;;;;3.56;58.08;100595.75;1643976;86;21133;-75
2021/04/10 02:55:33;;;;;;;32.25;15.45;;;;;;;3.56;58.14;100588.08;1636457;87;21558;-75
2021/04/10 02:58:20;;;;;;;30.75;16.15;;;;;;;3.56;58.14;100585.52;1642664;87;21544;-75
2021/04/10 03:01:06;;;;;;;33.42;16.15;;;;;;;3.56;58.28;100585.11;1620977;86;21236;-75
2021/04/10 03:03:51;;;;;;;35.38;16.80;;;;;;;3.56;58.32;100588.08;1639745;86;21232;-75
2021/04/10 03:06:38;;;;;;;30.40;15.53;;;;;;;3.57;58.37;100585.97;1634890;87;21259;-75
2021/04/10 03:09:24;;;;;;;35.08;16.60;;;;;;;3.60;58.42;100579.61;1618297;86;21226;-75
2021/04/10 03:12:19;;;;;;;31.65;16.82;;;;;;;3.62;58.49;100583.04;1612062;86;21237;-74
2021/04/10 03:15:06;;;;;;;35.00;18.37;;;;;;;3.64;58.55;100587.72;1632869;86;21234;-74
2021/04/10 03:17:51;;;;;;;33.98;17.70;;;;;;;3.69;58.63;100594.17;1633955;87;21116;-74
2021/04/10 03:20:37;;;;;;;33.03;17.03;;;;;;;3.74;58.66;100606.16;1643989;86;21570;-74
2021/04/10 03:23:22;;;;;;;34.43;17.33;;;;;;;3.80;58.73;100605.38;1634704;86;21873;-75
2021/04/10 03:26:08;;;;;;;38.28;16.70;;;;;;;3.83;58.74;100596.05;1623526;87;21340;-75
2021/04/10 03:28:54;;;;;;;44.85;18.70;;;;;;;3.87;58.80;100591.81;1629285;86;21229;-75
2021/04/10 03:31:40;;;;;;;33.35;17.10;;;;;;;3.92;58.80;100590.17;1634356;87;26759;-75
2021/04/10 03:34:26;;;;;;;32.65;16.25;;;;;;;3.93;58.87;100592.75;1638113;87;21523;-75
2021/04/10 03:37:11;;;;;;;34.20;17.97;;;;;;;3.95;58.95;100591.06;1628294;86;21226;-74
2021/04/10 03:40:01;;;;;;;31.50;16.32;;;;;;;3.96;58.97;100594.05;1643005;87;22310;-75
2021/04/10 03:42:45;;;;;;;31.70;15.88;;;;;;;4.00;59.01;100592.39;1641376;87;21221;-75
2021/04/10 03:45:30;;;;;;;33.28;16.37;;;;;;;4.06;59.08;100594.16;1616904;87;21257;-75
2021/04/10 03:48:17;;;;;;;30.77;16.73;;;;;;;4.09;59.12;100599.30;1626117;87;21453;-75
2021/04/10 03:51:03;;;;;;;29.77;16.45;;;;;;;4.13;59.20;100592.09;1620515;86;21194;-75
2021/04/10 03:53:48;;;;;;;31.23;16.05;;;;;;;4.16;59.28;100599.34;1630832;86;21215;-75
2021/04/10 03:56:33;;;;;;;33.33;16.85;;;;;;;4.16;59.26;100586.55;1636748;86;21218;-75
2021/04/10 03:59:18;;;;;;;31.85;15.93;;;;;;;4.19;59.37;100594.26;1636078;86;21518;-75
2021/04/10 04:02:03;;;;;;;32.40;16.65;;;;;;;4.22;59.33;100596.84;1633589;87;21251;-74
2021/04/10 04:04:48;;;;;;;32.67;17.15;;;;;;;4.27;59.38;100600.73;1639149;87;21220;-74
2021/04/10 04:07:34;;;;;;;30.40;16.05;;;;;;;4.30;59.39;100610.58;1628706;86;21229;-74
2021/04/10 04:10:19;;;;;;;37.88;17.67;;;;;;;4.33;59.49;100609.74;1631883;87;21185;-74
2021/04/10 04:13:04;;;;;;;35.50;18.07;;;;;;;4.35;59.48;100602.08;1630669;86;21513;-74
2021/04/10 04:15:49;;;;;;;32.83;17.60;;;;;;;4.37;59.50;100593.56;1640667;87;21220;-74
2021/04/10 04:18:34;;;;;;;36.00;16.70;;;;;;;4.38;59.51;100586.33;1631009;87;21247;-74
2021/04/10 04:21:20;;;;;;;38.83;18.02;;;;;;;4.40;59.51;100588.48;1614226;87;36657;-75
2021/04/10 04:24:07;;;;;;;36.77;18.52;;;;;;;4.41;59.54;100586.35;1632794;86;21203;-75
2021/04/10 04:26:52;;;;;;;31.60;17.60;;;;;;;4.41;59.57;100585.50;1634730;86;21236;-75
2021/04/10 04:29:37;;;;;;;36.17;17.92;;;;;;;4.39;59.58;100589.74;1634525;87;22271;-74
2021/04/10 04:32:24;;;;;;;33.05;18.05;;;;;;;4.40;59.67;100587.20;1627098;87;21235;-74
2021/04/10 04:35:10;;;;;;;35.60;18.73;;;;;;;4.42;59.69;100588.06;1643030;84;21205;-74
2021/04/10 04:37:55;;;;;;;37.95;17.12;;;;;;;4.45;59.76;100589.37;1628750;86;21210;-75
2021/04/10 04:40:40;;;;;;;31.75;17.57;;;;;;;4.44;59.72;100588.08;1626876;87;21278;-75
2021/04/10 04:43:26;;;;;;;35.13;18.05;;;;;;;4.43;59.83;100586.37;1631789;86;21210;-75
2021/04/10 04:46:11;;;;;;;31.50;16.87;;;;;;;4.47;59.91;100590.25;1629865;86;21230;-75
2021/04/10 04:48:56;;;;;;;36.00;17.87;;;;;;;4.54;59.96;100598.41;1633258;86;21206;-79
2021/04/10 04:51:41;;;;;;;38.83;18.60;;;;;;;4.61;60.01;100608.28;1634540;86;21226;-75
2021/04/10 04:54:27;;;;;;;32.70;17.27;;;;;;;4.72;60.08;100601.52;1629701;87;21247;-75
2021/04/10 04:57:12;;;;;;;31.95;17.75;;;;;;;4.80;60.06;100606.27;1630215;85;22527;-75
2021/04/10 04:59:57;;;;;;;35.23;19.07;;;;;;;4.90;60.16;100600.36;1631486;86;21251;-75
2021/04/10 05:02:42;;;;;;;38.38;19.42;;;;;;;5.02;60.21;100605.14;1631997;86;21674;-75
2021/04/10 05:05:27;;;;;;;41.68;18.25;;;;;;;5.11;60.23;100608.62;1629598;86;21281;-76
2021/04/10 05:08:12;;;;;;;32.08;17.35;;;;;;;5.22;60.25;100613.36;1627537;86;21223;-75
2021/04/10 05:10:57;;;;;;;33.20;18.23;;;;;;;5.35;60.24;100620.69;1626759;87;21179;-75
2021/04/10 05:13:42;;;;;;;34.25;18.75;;;;;;;5.44;60.34;100632.28;1629603;86;21206;-75
2021/04/10 05:16:29;;;;;;;33.98;17.00;;;;;;;5.55;60.41;100635.75;1632897;86;21234;-75
2021/04/10 05:19:14;;;;;;;;;;;;;;;5.67;60.42;100639.23;1637018;87;21235;-75
2021/04/10 05:21:58;;;;;;;31.27;16.73;;;;;;;5.76;60.57;100643.08;1629425;86;20317;-75
2021/04/10 05:24:44;;;;;;;32.60;18.17;;;;;;;5.78;60.43;100652.50;1633221;86;21571;-75
2021/04/10 05:27:28;;;;;;;33.65;17.20;;;;;;;5.85;60.46;100656.80;1609586;87;21232;-75
2021/04/10 05:30:15;;;;;;;32.95;17.55;;;;;;;5.93;60.58;100655.16;1620989;86;21213;-75
2021/04/10 05:33:00;;;;;;;34.30;18.10;;;;;;;6.03;60.57;100658.62;1622228;86;21252;-75
2021/04/10 05:35:45;;;;;;;33.23;18.23;;;;;;;6.15;60.65;100659.08;1625606;86;21239;-76
2021/04/10 05:38:32;;;;;;;27.77;16.50;;;;;;;6.29;60.71;100650.53;1624306;86;21282;-75
2021/04/10 05:41:17;;;;;;;37.30;18.85;;;;;;;6.40;60.62;100649.70;1623691;85;21737;-75
2021/04/10 05:44:03;;;;;;;39.17;18.77;;;;;;;6.53;60.75;100648.43;1622560;86;21266;-75
2021/04/10 05:46:48;;;;;;;39.03;20.10;;;;;;;6.72;60.67;100641.59;1621898;86;22199;-74
2021/04/10 05:49:33;;;;;;;33.98;19.77;;;;;;;6.88;60.65;100634.70;1621110;86;21705;-74
2021/04/10 05:52:18;;;;;;;36.45;20.15;;;;;;;7.01;60.64;100633.84;1622935;87;21231;-74
2021/04/10 05:55:05;;;;;;;35.15;20.32;;;;;;;7.07;60.54;100638.12;1604967;88;21770;-74
2021/04/10 05:57:51;;;;;;;37.25;20.88;;;;;;;7.13;60.59;100635.11;1619982;86;21163;-74
2021/04/10 06:00:36;;;;;;;36.80;21.48;;;;;;;7.19;60.53;100640.24;1623481;86;21223;-75
2021/04/10 06:03:21;;;;;;;39.63;20.40;;;;;;;7.25;60.53;100649.23;1626321;86;21599;-75
2021/04/10 06:06:08;;;;;;;35.63;20.65;;;;;;;7.31;60.48;100656.05;1624200;88;21262;-75
2021/04/10 06:08:53;;;;;;;41.05;21.45;;;;;;;7.40;60.45;100661.17;1605757;88;21246;-76
2021/04/10 06:11:39;;;;;;;40.25;21.70;;;;;;;7.49;60.44;100678.30;1619019;86;21225;-75
2021/04/10 06:14:24;;;;;;;41.77;20.80;;;;;;;7.59;60.41;100687.29;1625061;86;21238;-75
2021/04/10 06:17:10;;;;;;;38.55;21.68;;;;;;;7.60;60.45;100687.72;1624445;88;21215;-75
2021/04/10 06:19:55;;;;;;;38.40;22.35;;;;;;;7.63;60.35;100698.00;1623236;86;21535;-76
2021/04/10 06:22:40;;;;;;;42.45;21.73;;;;;;;7.66;60.37;100702.72;1625485;86;21255;-76
2021/04/10 06:25:26;;;;;;;44.60;20.68;;;;;;;7.65;60.38;100712.16;1620040;87;21227;-77
2021/04/10 06:28:10;;;;;;;36.58;20.55;;;;;;;7.64;60.29;100719.02;1626155;86;21215;-75
2021/04/10 06:30:57;;;;;;;36.58;21.07;;;;;;;7.56;60.32;100722.03;1626190;87;21211;-75
2021/04/10 06:33:42;;;;;;;38.85;20.40;;;;;;;7.52;60.29;100728.47;1626225;87;28382;-75
2021/04/10 06:36:28;;;;;;;40.63;21.40;;;;;;;7.51;60.35;100734.05;1621222;86;21223;-75
2021/04/10 06:39:13;;;;;;;37.45;20.97;;;;;;;7.49;60.33;100747.34;1624710;86;21452;-75
2021/04/10 06:41:59;;;;;;;41.98;21.65;;;;;;;7.43;60.29;100752.92;1625119;86;21693;-74
2021/04/10 06:44:44;;;;;;;40.70;21.15;;;;;;;7.38;60.38;100766.22;1623522;86;21219;-74
2021/04/10 06:47:34;;;;;;;42.08;21.82;;;;;;;7.37;60.35;100769.65;1626467;87;21508;-74
2021/04/10 06:50:19;;;;;;;39.42;21.55;;;;;;;7.27;60.37;100770.97;1627154;87;21064;-75
2021/04/10 06:53:08;;;;;;;45.67;23.00;;;;;;;7.23;60.36;100769.25;1627162;86;21222;-75
2021/04/10 06:55:56;;;;;;;43.28;22.50;;;;;;;7.21;60.42;100772.25;1623488;86;21393;-75
2021/04/10 06:59:11;;;;;;;50.58;23.70;;;;;;;7.18;60.46;100766.25;1625779;86;21242;-78
2021/04/10 07:01:57;;;;;;;49.58;24.37;;;;;;;7.20;60.59;100779.54;1633811;86;21680;-76
2021/04/10 07:04:43;;;;;;;41.45;22.65;;;;;;;7.21;60.58;100777.83;1627466;86;21807;-76
2021/04/10 07:07:28;;;;;;;61.58;28.67;;;;;;;7.20;60.71;100785.11;1626207;86;22353;-76
2021/04/10 07:10:13;;;;;;;56.92;27.85;;;;;;;7.19;60.76;100785.54;1628666;87;21252;-76
2021/04/10 07:12:58;;;;;;;62.75;30.25;;;;;;;7.18;60.72;100790.68;1626906;86;21248;-75
2021/04/10 07:15:44;;;;;;;71.65;33.83;;;;;;;7.18;60.85;100800.54;1625795;86;21194;-75
2021/04/10 07:18:32;;;;;;;60.20;29.67;;;;;;;7.20;60.85;100790.25;1615089;86;21214;-76
2021/04/10 07:21:21;;;;;;;56.70;26.73;;;;;;;7.18;60.98;100796.69;1622346;86;21187;-75
2021/04/10 07:24:07;;;;;;;48.52;22.40;;;;;;;7.21;61.10;100798.40;1626414;87;21216;-75
2021/04/10 07:26:57;;;;;;;43.60;22.65;;;;;;;7.23;61.16;100808.26;1628572;86;21560;-75
2021/04/10 07:29:45;;;;;;;42.38;22.42;;;;;;;7.25;61.29;100815.55;1631079;86;21453;-75
2021/04/10 07:32:38;;;;;;;55.95;25.45;;;;;;;7.31;61.35;100810.37;1626793;87;20980;-75
2021/04/10 07:35:27;;;;;;;47.75;22.80;;;;;;;7.35;61.39;100809.95;1591064;88;21191;-75
2021/04/10 07:38:26;;;;;;;33.55;20.43;;;;;;;7.36;61.45;100804.80;1573168;88;21234;-75
2021/04/10 07:41:16;;;;;;;35.33;18.52;;;;;;;7.42;61.56;100807.38;1593911;88;21209;-76
2021/04/10 07:44:01;;;;;;;30.17;18.80;;;;;;;7.51;61.63;100815.09;1587569;88;21204;-78
2021/04/10 07:46:51;;;;;;;32.90;17.87;;;;;;;7.62;61.79;100816.38;1588421;88;21542;-78
2021/04/10 07:49:36;;;;;;;30.80;18.50;;;;;;;7.74;61.84;100816.37;1591484;88;21595;-78
2021/04/10 07:52:24;;;;;;;29.27;16.62;;;;;;;7.86;61.86;100811.17;1599503;85;42542;-78
2021/04/10 07:55:10;;;;;;;27.20;16.70;;;;;;;7.97;61.86;100815.88;1593004;87;21065;-78
2021/04/10 07:57:54;;;;;;;28.47;15.90;;;;;;;7.98;61.65;100818.88;1583506;89;21158;-78
2021/04/10 08:00:42;;;;;;;26.50;15.78;;;;;;;7.89;61.55;100819.33;1601609;87;21195;-78
2021/04/10 08:03:33;;;;;;;32.45;17.17;;;;;;;7.81;61.70;100824.48;1589299;88;21155;-78
2021/04/10 08:06:20;;;;;;;24.80;15.25;;;;;;;7.79;61.83;100824.09;1598100;88;21167;-78
2021/04/10 08:09:04;;;;;;;;;;;;;;;7.77;61.91;100828.38;1599827;87;21195;-78
2021/04/10 08:11:52;;;;;;;25.27;14.18;;;;;;;7.71;62.13;100832.25;1606625;87;20224;-78
2021/04/10 08:14:44;;;;;;;21.82;13.88;;;;;;;7.66;62.07;100833.97;1576748;88;21245;-78
2021/04/10 08:17:41;;;;;;;26.75;15.45;;;;;;;7.62;62.06;100840.83;1591946;88;21231;-78
2021/04/10 08:20:29;;;;;;;22.87;14.20;;;;;;;7.50;62.13;100845.97;1624782;86;21217;-78
2021/04/10 08:23:21;;;;;;;20.52;14.38;;;;;;;7.46;62.31;100848.11;1616318;87;21221;-79
2021/04/10 08:26:06;;;;;;;22.73;13.80;;;;;;;7.44;62.43;100854.98;1624514;86;21893;-78
2021/04/10 08:28:51;;;;;;;21.23;13.62;;;;;;;7.44;62.58;100862.69;1612593;87;21532;-79
2021/04/10 08:31:36;;;;;;;24.87;14.68;;;;;;;7.47;62.62;100861.41;1593938;88;21830;-78
2021/04/10 08:34:22;;;;;;;25.10;15.40;;;;;;;7.48;62.65;100869.12;1613764;87;21181;-78
2021/04/10 08:37:11;;;;;;;25.17;16.62;;;;;;;7.54;62.72;100865.70;1611009;87;21325;-78
2021/04/10 08:39:56;;;;;;;23.40;15.25;;;;;;;7.60;62.73;100870.42;1600951;88;21927;-78
2021/04/10 08:42:44;;;;;;;27.07;15.85;;;;;;;7.64;62.80;100873.43;1600313;88;21166;-78
2021/04/10 08:45:36;;;;;;;29.35;15.32;;;;;;;7.66;62.83;100876.00;1619192;88;21047;-78
2021/04/10 08:48:22;;;;;;;27.67;15.35;;;;;;;7.66;62.70;100881.15;1611169;87;21052;-78
2021/04/10 08:51:08;;;;;;;28.90;15.55;;;;;;;7.58;62.72;100869.99;1619198;88;21012;-78
2021/04/10 08:53:57;;;;;;;28.25;16.40;;;;;;;7.53;62.87;100867.84;1617211;88;21165;-77
2021/04/10 08:56:44;;;;;;;24.95;16.48;;;;;;;7.49;62.91;100873.84;1612463;87;21027;-77
2021/04/10 08:59:34;;;;;;;25.15;15.68;;;;;;;7.46;62.98;100873.84;1602367;88;21139;-77
2021/04/10 09:02:21;;;;;;;28.70;16.60;;;;;;;7.44;63.11;100869.12;1611146;87;21193;-77
2021/04/10 09:05:09;;;;;;;31.12;17.60;;;;;;;7.41;63.12;100871.27;1611954;87;21027;-77
2021/04/10 09:07:59;;;;;;;31.20;20.15;;;;;;;7.40;63.23;100872.55;1611610;87;21467;-78
2021/04/10 09:10:45;;;;;;;35.17;20.32;;;;;;;7.42;63.30;100872.98;1610088;88;21198;-78
2021/04/10 09:13:43;;;;;;;42.48;23.40;;;;;;;7.43;63.37;100872.55;1610166;87;21175;-77
2021/04/10 09:16:38;;;;;;;37.93;21.23;;;;;;;7.40;63.40;100872.55;1614905;87;21131;-77
2021/04/10 09:19:29;;;;;;;49.13;25.12;;;;;;;7.34;63.47;100874.69;1612709;87;21047;-74
2021/04/10 09:22:18;;;;;;;50.95;26.00;;;;;;;7.28;63.55;100871.67;1610965;87;21183;-75
2021/04/10 09:25:04;;;;;;;34.88;21.12;;;;;;;7.25;63.66;100879.84;1613237;87;21068;-76
2021/04/10 09:27:57;;;;;;;28.15;17.87;;;;;;;7.22;63.77;100874.70;1599885;88;21036;-76
2021/04/10 09:30:42;;;;;;;31.50;19.40;;;;;;;7.21;63.83;100878.13;1602240;87;21199;-78
2021/04/10 09:33:34;;;;;;;39.75;22.55;;;;;;;7.15;63.85;100884.11;1595995;88;21168;-81
2021/04/10 09:36:48;;;;;;;55.52;30.95;;;;;;;7.10;63.95;100877.23;1603432;88;21012;-81
2021/04/10 09:40:05;;;;;;;46.70;30.53;;;;;;;7.05;64.07;100877.23;1607451;87;998612;-80
2021/04/10 09:43:03;;;;;;;34.50;21.82;;;;;;;7.03;64.22;100871.65;1623242;87;21114;-80
2021/04/10 09:45:51;;;;;;;30.77;18.98;;;;;;;6.98;64.32;100863.92;1619426;87;21055;-79
2021/04/10 09:48:38;;;;;;;;;;;;;;;6.96;64.43;100865.20;1626088;87;21192;-79
2021/04/10 09:51:25;;;;;;;33.55;20.60;;;;;;;6.95;64.82;100863.91;1611926;87;20294;-79
2021/04/10 09:54:12;;;;;;;32.65;20.25;;;;;;;6.95;64.60;100856.20;1628384;87;21139;-79
2021/04/10 09:56:57;;;;;;;28.57;20.37;;;;;;;6.95;64.69;100862.20;1619973;87;21179;-79
2021/04/10 09:59:46;;;;;;;36.80;22.02;;;;;;;7.00;64.67;100863.50;1616130;87;21469;-80
2021/04/10 10:02:30;;;;;;;33.02;21.70;;;;;;;6.96;64.63;100860.06;1617466;87;21206;-78
2021/04/10 10:05:16;;;;;;;33.75;19.75;;;;;;;6.94;64.77;100856.63;1622889;87;21145;-79
2021/04/10 10:08:10;;;;;;;30.97;19.25;;;;;;;6.95;64.85;100857.48;1627911;87;21237;-77
2021/04/10 10:10:58;;;;;;;43.23;25.85;;;;;;;6.96;64.89;100857.92;1621974;87;21187;-77
2021/04/10 10:13:43;;;;;;;42.10;24.77;;;;;;;6.96;64.96;100858.78;1616318;87;21184;-77
2021/04/10 10:16:30;;;;;;;35.17;24.80;;;;;;;6.98;64.92;100862.64;1619876;87;21154;-77
2021/04/10 10:19:17;;;;;;;32.55;22.85;;;;;;;7.00;65.08;100863.50;1647679;85;351707;-77
2021/04/10 10:22:02;;;;;;;37.42;23.62;;;;;;;7.00;65.11;100853.22;1658577;85;21138;-76
2021/04/10 10:25:00;;;;;;;32.65;20.48;;;;;;;6.98;65.14;100857.06;1659861;85;22176;-76
2021/04/10 10:27:47;;;;;;;35.90;21.68;;;;;;;7.02;65.25;100855.37;1647944;85;22270;-76
2021/04/10 10:30:36;;;;;;;33.18;18.95;;;;;;;7.03;65.30;100857.08;1668868;84;21223;-76
2021/04/10 10:33:22;;;;;;;31.50;19.32;;;;;;;7.08;65.34;100863.09;1675669;84;21195;-76
2021/04/10 10:36:09;;;;;;;49.42;32.05;;;;;;;7.10;65.38;100860.53;1668613;83;21136;-76
2021/04/10 10:38:53;;;;;;;29.45;21.15;;;;;;;7.12;65.44;100861.39;1670985;84;21139;-76
2021/04/10 10:41:46;;;;;;;30.82;20.05;;;;;;;7.15;65.48;100855.83;1674215;84;21146;-76
2021/04/10 10:44:31;;;;;;;36.25;23.70;;;;;;;7.20;65.56;100860.98;1637320;85;21152;-76
2021/04/10 10:47:15;;;;;;;26.35;18.80;;;;;;;7.23;65.58;100858.41;1664519;84;21144;-76
2021/04/10 10:50:01;;;;;;;27.77;18.37;;;;;;;7.31;65.64;100864.39;1690108;84;21126;-76
2021/04/10 10:52:45;;;;;;;26.00;17.57;;;;;;;7.37;65.68;100869.97;1682705;84;21416;-76
2021/04/10 10:55:31;;;;;;;27.62;18.55;;;;;;;7.38;65.68;100870.41;1672068;84;21167;-76
2021/04/10 10:58:16;;;;;;;28.70;18.32;;;;;;;7.38;65.75;100876.41;1690411;84;21050;-76
2021/04/10 11:01:02;;;;;;;34.20;21.27;;;;;;;7.39;65.79;100879.41;1680834;84;21149;-76
2021/04/10 11:03:55;;;;;;;41.55;23.12;;;;;;;7.37;65.85;100883.69;1667256;84;21172;-76
2021/04/10 11:06:44;;;;;;;32.58;21.00;;;;;;;7.40;66.01;100887.98;1676649;84;21142;-74
2021/04/10 11:09:33;;;;;;;30.23;18.98;;;;;;;7.47;66.15;100893.14;1675385;84;21203;-74
2021/04/10 11:12:20;;;;;;;30.50;20.08;;;;;;;7.52;66.17;100896.58;1654732;84;21224;-75
2021/04/10 11:15:07;;;;;;;35.05;19.95;;;;;;;7.55;66.19;100903.02;1667976;84;21151;-75
2021/04/10 11:17:51;;;;;;;34.90;20.20;;;;;;;7.57;66.26;100906.88;1673273;84;21060;-75
2021/04/10 11:20:36;;;;;;;30.88;21.05;;;;;;;7.59;66.36;100906.45;1678690;84;21138;-75
2021/04/10 11:23:21;;;;;;;33.67;20.43;;;;;;;7.63;66.29;100908.17;1686658;84;21050;-75
2021/04/10 11:26:06;;;;;;;30.17;19.27;;;;;;;7.63;66.35;100910.31;1673726;84;21024;-75
2021/04/10 11:28:51;;;;;;;33.08;19.82;;;;;;;7.65;66.37;100914.17;1672949;84;21180;-75
2021/04/10 11:31:35;;;;;;;29.25;19.42;;;;;;;7.68;66.47;100928.34;1665888;84;21155;-75
2021/04/10 11:34:32;;;;;;;30.72;20.10;;;;;;;7.73;66.52;100921.91;1690447;84;21109;-75
2021/04/10 11:37:31;;;;;;;30.43;18.42;;;;;;;7.76;66.58;100926.62;1652709;85;21458;-75
2021/04/10 11:40:31;;;;;;;30.75;21.52;;;;;;;7.78;66.53;100928.77;1674736;84;21167;-75
2021/04/10 11:43:16;;;;;;;30.37;20.55;;;;;;;7.83;66.69;100926.17;1677603;84;21142;-76
2021/04/10 11:46:01;;;;;;;30.60;20.72;;;;;;;7.90;66.72;100930.03;1668391;84;21225;-76
2021/04/10 11:48:46;;;;;;;30.70;20.77;;;;;;;7.92;66.74;100929.60;1669356;84;21254;-75
2021/04/10 11:51:31;;;;;;;37.80;21.68;;;;;;;7.99;66.82;100931.75;1672492;84;21530;-75
2021/04/10 11:54:30;;;;;;;36.55;21.57;;;;;;;8.04;66.77;100931.75;1679494;84;22331;-75
2021/04/10 11:57:33;;;;;;;34.27;21.60;;;;;;;8.04;66.81;100928.74;1673933;84;21151;-75
2021/04/10 12:00:25;;;;;;;43.68;25.57;;;;;;;8.10;66.89;100938.19;1675108;84;21110;-77
2021/04/10 12:03:12;;;;;;;122.75;69.95;;;;;;;8.11;66.86;100937.33;1694331;84;21123;-76
2021/04/10 12:05:56;;;;;;;39.98;26.82;;;;;;;8.13;66.96;100935.17;1656847;84;25122;-76
2021/04/10 12:08:41;;;;;;;32.45;21.15;;;;;;;8.15;66.75;100933.89;1665366;84;21163;-76
2021/04/10 12:11:26;;;;;;;33.73;20.97;;;;;;;8.11;66.74;100942.48;1662280;84;21163;-77
2021/04/10 12:14:14;;;;;;;27.40;17.90;;;;;;;8.08;66.78;100934.75;1671594;85;21594;-76
2021/04/10 12:16:59;;;;;;;84.22;46.18;;;;;;;8.05;66.90;100938.19;1626333;86;21134;-76
2021/04/10 12:19:44;;;;;;;39.83;25.15;;;;;;;8.06;66.95;100942.48;1681089;84;21145;-76
2021/04/10 12:22:29;;;;;;;22.07;16.97;;;;;;;8.10;67.04;100945.48;1657051;84;21496;-76
2021/04/10 12:25:14;;;;;;;21.97;15.45;;;;;;;8.15;67.04;100947.62;1623479;84;21195;-78
2021/04/10 12:27:59;;;;;;;22.40;14.93;;;;;;;8.18;66.88;100954.06;1622054;86;21143;-79
2021/04/10 12:30:44;;;;;;;41.70;24.82;;;;;;;8.17;66.83;100954.06;1615029;86;21182;-78
2021/04/10 12:33:30;;;;;;;21.95;15.30;;;;;;;8.19;67.10;100961.36;1675299;84;21144;-78
2021/04/10 12:36:15;;;;;;;19.73;14.73;;;;;;;8.25;67.06;100958.35;1665843;84;21455;-78
2021/04/10 12:39:01;;;;;;;15.63;13.40;;;;;;;8.26;66.90;100959.20;1677262;84;21003;-78
2021/04/10 12:41:46;;;;;;;58.05;34.18;;;;;;;8.27;66.99;100963.08;1677824;84;21117;-78
2021/04/10 12:44:31;;;;;;;374.85;214.35;;;;;;;8.35;67.15;100960.92;1665814;84;21096;-78
2021/04/10 12:47:19;;;;;;;72.15;42.93;;;;;;;8.42;67.10;100962.63;1672429;84;21463;-78
2021/04/10 12:50:07;;;;;;;43.83;28.70;;;;;;;8.46;67.14;100960.47;1672824;84;21141;-78